Station Historical Data
Daily Summary for July 23, 2012 Units:  English    Metric   Both
« Previous Day
Next Day »
Daily Weekly Monthly Yearly Custom
  High: Low: Average:
Temperature: 90.6 °F 71.1 °F 81.1 °F
Dew Point: 76.8 °F 68.7 °F 73.4 °F
Humidity: 92% 57% 79%
Wind Speed: 10.0mph 0.0mph 2.2mph
Wind Gust: 12.0mph - -
Wind- - SSW
Pressure: 30.16 in 30.02 in -
Precipitation: 0.00 in    
Historical Graphs
 
 
Tabular Data for July 23, 2012
Time Temperature Dew Point Pressure Wind Wind Speed Wind Gust Humidity Rainfall Rate (Hourly) Conditions
00:00 75.9 °F 73.1 °F 30.10 in SE 3.0 mph 4.0 mph 91% 0.00 in
00:01 75.9 °F 73.1 °F 30.10 in SSE 4.0 mph 4.0 mph 91% 0.00 in
00:06 76.0 °F 73.2 °F 30.10 in South 1.0 mph 2.0 mph 91% 0.00 in
00:11 76.1 °F 73.3 °F 30.10 in SSW 1.0 mph 2.0 mph 91% 0.00 in
00:16 76.2 °F 73.4 °F 30.11 in South 1.0 mph 3.0 mph 91% 0.00 in
00:21 76.2 °F 73.4 °F 30.10 in SSE 2.0 mph 3.0 mph 91% 0.00 in
00:26 76.2 °F 73.4 °F 30.10 in SSE 2.0 mph 3.0 mph 91% 0.00 in
00:31 76.1 °F 73.0 °F 30.10 in SSE 2.0 mph 4.0 mph 90% 0.00 in
00:36 75.7 °F 72.9 °F 30.10 in SSE 3.0 mph 3.0 mph 91% 0.00 in
00:41 75.5 °F 72.7 °F 30.10 in SE 1.0 mph 2.0 mph 91% 0.00 in
00:47 75.4 °F 72.6 °F 30.10 in SSE 1.0 mph 2.0 mph 91% 0.00 in
00:51 75.3 °F 72.8 °F 30.10 in SSE 2.0 mph 2.0 mph 92% 0.00 in
00:56 75.3 °F 72.8 °F 30.10 in SSE 1.0 mph 2.0 mph 92% 0.00 in
01:02 75.1 °F 72.6 °F 30.10 in SSE 1.0 mph 2.0 mph 92% 0.00 in
01:07 75.1 °F 72.6 °F 30.10 in SE 1.0 mph 2.0 mph 92% 0.00 in
01:11 75.0 °F 72.5 °F 30.10 in Calm   2.0 mph 92% 0.00 in
01:17 74.9 °F 72.4 °F 30.10 in Calm     92% 0.00 in
01:22 74.6 °F 72.1 °F 30.10 in Calm     92% 0.00 in
01:27 74.4 °F 71.9 °F 30.10 in Calm     92% 0.00 in
01:32 74.4 °F 71.9 °F 30.10 in SE 1.0 mph 1.0 mph 92% 0.00 in
01:37 74.3 °F 71.8 °F 30.09 in SE 1.0 mph 1.0 mph 92% 0.00 in
01:42 74.2 °F 71.7 °F 30.09 in SSE 2.0 mph 2.0 mph 92% 0.00 in
01:47 74.1 °F 71.6 °F 30.09 in SSE 2.0 mph 2.0 mph 92% 0.00 in
01:52 74.2 °F 71.7 °F 30.09 in SSE 2.0 mph 3.0 mph 92% 0.00 in
01:57 74.4 °F 71.9 °F 30.09 in SE 2.0 mph 2.0 mph 92% 0.00 in
02:02 74.6 °F 72.1 °F 30.09 in SE 2.0 mph 3.0 mph 92% 0.00 in
02:07 74.8 °F 72.3 °F 30.09 in SSW 1.0 mph 2.0 mph 92% 0.00 in
02:12 75.0 °F 72.5 °F 30.09 in SE 1.0 mph 2.0 mph 92% 0.00 in
02:17 74.9 °F 72.4 °F 30.09 in SSE 1.0 mph 2.0 mph 92% 0.00 in
02:22 74.8 °F 72.3 °F 30.09 in SE 1.0 mph 2.0 mph 92% 0.00 in
02:27 74.8 °F 72.3 °F 30.09 in SSW 1.0 mph 2.0 mph 92% 0.00 in
02:32 74.9 °F 72.4 °F 30.09 in Calm     92% 0.00 in
02:37 74.7 °F 72.2 °F 30.09 in SSW 1.0 mph 1.0 mph 92% 0.00 in
02:42 74.6 °F 72.1 °F 30.09 in SSW 1.0 mph 1.0 mph 92% 0.00 in
02:47 74.4 °F 71.9 °F 30.09 in SSW 1.0 mph 1.0 mph 92% 0.00 in
02:52 74.1 °F 71.6 °F 30.09 in Calm     92% 0.00 in
02:57 73.8 °F 71.3 °F 30.09 in Calm     92% 0.00 in
03:02 73.8 °F 71.3 °F 30.09 in SSW 1.0 mph 1.0 mph 92% 0.00 in
03:07 73.8 °F 71.3 °F 30.09 in SE 1.0 mph 2.0 mph 92% 0.00 in
03:12 73.8 °F 71.3 °F 30.09 in SE 1.0 mph 1.0 mph 92% 0.00 in
03:17 73.8 °F 71.3 °F 30.09 in Calm     92% 0.00 in
03:22 73.7 °F 71.2 °F 30.09 in Calm     92% 0.00 in
03:28 73.6 °F 71.1 °F 30.09 in Calm     92% 0.00 in
03:33 73.4 °F 70.9 °F 30.09 in Calm     92% 0.00 in
03:38 73.5 °F 71.0 °F 30.09 in SE 1.0 mph 1.0 mph 92% 0.00 in
03:43 73.6 °F 71.1 °F 30.09 in Calm     92% 0.00 in
03:48 73.5 °F 71.0 °F 30.09 in Calm     92% 0.00 in
03:53 73.3 °F 70.8 °F 30.09 in Calm     92% 0.00 in
03:58 73.3 °F 70.8 °F 30.09 in Calm     92% 0.00 in
04:03 73.3 °F 70.8 °F 30.09 in SSE 1.0 mph 2.0 mph 92% 0.00 in
04:08 73.5 °F 71.0 °F 30.09 in Calm   1.0 mph 92% 0.00 in
04:13 73.5 °F 71.0 °F 30.10 in Calm     92% 0.00 in
04:18 73.3 °F 70.8 °F 30.10 in Calm     92% 0.00 in
04:23 73.3 °F 70.8 °F 30.10 in Calm     92% 0.00 in
04:28 73.3 °F 70.8 °F 30.10 in Calm     92% 0.00 in
04:33 73.3 °F 70.8 °F 30.10 in Calm     92% 0.00 in
04:38 73.2 °F 70.7 °F 30.10 in Calm     92% 0.00 in
04:43 73.2 °F 70.7 °F 30.11 in Calm     92% 0.00 in
04:48 73.2 °F 70.7 °F 30.11 in Calm     92% 0.00 in
04:53 73.1 °F 70.6 °F 30.11 in Calm     92% 0.00 in
04:58 73.0 °F 70.5 °F 30.11 in Calm     92% 0.00 in
05:03 73.0 °F 70.5 °F 30.11 in Calm     92% 0.00 in
05:08 72.9 °F 70.4 °F 30.10 in Calm     92% 0.00 in
05:13 72.7 °F 70.2 °F 30.10 in Calm     92% 0.00 in
05:18 72.6 °F 70.2 °F 30.11 in Calm     92% 0.00 in
05:23 72.5 °F 70.1 °F 30.10 in Calm     92% 0.00 in
05:29 72.5 °F 70.1 °F 30.10 in Calm     92% 0.00 in
05:34 72.4 °F 69.9 °F 30.10 in Calm     92% 0.00 in
05:39 72.3 °F 69.8 °F 30.10 in Calm     92% 0.00 in
05:44 72.2 °F 69.8 °F 30.10 in Calm     92% 0.00 in
05:49 72.2 °F 69.8 °F 30.10 in Calm     92% 0.00 in
05:54 72.2 °F 69.8 °F 30.10 in Calm     92% 0.00 in
05:59 72.0 °F 69.6 °F 30.10 in Calm     92% 0.00 in
06:04 72.2 °F 69.8 °F 30.10 in Calm     92% 0.00 in
06:09 72.1 °F 69.7 °F 30.10 in Calm     92% 0.00 in
06:14 71.8 °F 69.3 °F 30.11 in Calm     92% 0.00 in
06:19 71.7 °F 69.3 °F 30.11 in Calm     92% 0.00 in
06:24 71.6 °F 69.2 °F 30.11 in Calm     92% 0.00 in
06:29 71.5 °F 69.1 °F 30.11 in Calm     92% 0.00 in
06:34 71.5 °F 69.1 °F 30.11 in NNW 1.0 mph 2.0 mph 92% 0.00 in
06:39 71.4 °F 69.0 °F 30.11 in Calm   1.0 mph 92% 0.00 in
06:44 71.3 °F 68.9 °F 30.12 in NNW 1.0 mph 1.0 mph 92% 0.00 in
06:49 71.2 °F 68.8 °F 30.12 in SE 1.0 mph 1.0 mph 92% 0.00 in
06:54 71.2 °F 68.8 °F 30.12 in SE 1.0 mph 1.0 mph 92% 0.00 in
06:59 71.2 °F 68.8 °F 30.12 in SE 1.0 mph 1.0 mph 92% 0.00 in
07:04 71.1 °F 68.7 °F 30.12 in Calm   1.0 mph 92% 0.00 in
07:09 71.1 °F 68.7 °F 30.12 in Calm     92% 0.00 in
07:14 71.2 °F 68.8 °F 30.12 in Calm     92% 0.00 in
07:19 71.3 °F 68.9 °F 30.12 in Calm     92% 0.00 in
07:24 71.5 °F 69.1 °F 30.12 in Calm     92% 0.00 in
07:29 71.7 °F 69.3 °F 30.12 in Calm     92% 0.00 in
07:34 72.2 °F 69.8 °F 30.12 in Calm     92% 0.00 in
07:39 72.6 °F 70.2 °F 30.12 in SE 1.0 mph 2.0 mph 92% 0.00 in
07:44 73.0 °F 70.5 °F 30.13 in SSE 1.0 mph 2.0 mph 92% 0.00 in
07:49 73.7 °F 71.2 °F 30.13 in SE 2.0 mph 2.0 mph 92% 0.00 in
07:54 74.3 °F 71.8 °F 30.13 in SSE 1.0 mph 2.0 mph 92% 0.00 in
07:59 75.1 °F 72.6 °F 30.13 in SSE 1.0 mph 1.0 mph 92% 0.00 in
08:04 75.6 °F 73.1 °F 30.14 in SSW 1.0 mph 2.0 mph 92% 0.00 in
08:09 76.1 °F 73.6 °F 30.14 in SSW 2.0 mph 3.0 mph 92% 0.00 in
08:14 76.6 °F 73.8 °F 30.14 in SSW 1.0 mph 3.0 mph 91% 0.00 in
08:20 76.8 °F 74.0 °F 30.15 in SSW 2.0 mph 3.0 mph 91% 0.00 in
08:25 77.0 °F 73.8 °F 30.14 in SW 2.0 mph 3.0 mph 90% 0.00 in
08:30 77.3 °F 74.1 °F 30.14 in SW 1.0 mph 2.0 mph 90% 0.00 in
08:35 77.6 °F 74.4 °F 30.15 in SSW 2.0 mph 2.0 mph 90% 0.00 in
08:40 77.7 °F 74.2 °F 30.15 in South 1.0 mph 3.0 mph 89% 0.00 in
08:45 77.9 °F 74.4 °F 30.15 in Calm   4.0 mph 89% 0.00 in
08:50 78.0 °F 74.5 °F 30.15 in SSW 2.0 mph 4.0 mph 89% 0.00 in
08:55 78.1 °F 74.6 °F 30.15 in SW 3.0 mph 5.0 mph 89% 0.00 in
09:00 78.1 °F 74.6 °F 30.15 in SSW 4.0 mph 6.0 mph 89% 0.00 in
09:05 78.0 °F 74.2 °F 30.16 in WSW 4.0 mph 6.0 mph 88% 0.00 in
09:10 78.3 °F 74.8 °F 30.16 in SSW 3.0 mph 7.0 mph 89% 0.00 in
09:15 78.6 °F 74.8 °F 30.16 in WSW 4.0 mph 6.0 mph 88% 0.00 in
09:20 78.8 °F 74.9 °F 30.16 in SW 5.0 mph 5.0 mph 88% 0.00 in
09:25 78.8 °F 74.9 °F 30.16 in WSW 6.0 mph 6.0 mph 88% 0.00 in
09:30 78.9 °F 74.7 °F 30.16 in West 3.0 mph 5.0 mph 87% 0.00 in
09:35 79.3 °F 75.1 °F 30.16 in West 4.0 mph 7.0 mph 87% 0.00 in
09:40 79.4 °F 75.5 °F 30.16 in West 2.0 mph 6.0 mph 88% 0.00 in
09:45 79.7 °F 75.2 °F 30.16 in WSW 6.0 mph 6.0 mph 86% 0.00 in
09:50 79.9 °F 75.3 °F 30.15 in SSE 3.0 mph 6.0 mph 86% 0.00 in
09:55 80.2 °F 74.9 °F 30.15 in WSW 4.0 mph 8.0 mph 84% 0.00 in
10:00 80.4 °F 75.5 °F 30.15 in West 5.0 mph 6.0 mph 85% 0.00 in
10:05 80.7 °F 76.1 °F 30.15 in WNW 5.0 mph 6.0 mph 86% 0.00 in
10:10 81.1 °F 75.8 °F 30.16 in West 3.0 mph 5.0 mph 84% 0.00 in
10:15 81.1 °F 75.4 °F 30.15 in SW 1.0 mph 7.0 mph 83% 0.00 in
10:20 81.3 °F 75.3 °F 30.15 in West 2.0 mph 6.0 mph 82% 0.00 in
10:25 81.8 °F 75.4 °F 30.15 in WSW 1.0 mph 4.0 mph 81% 0.00 in
10:30 82.4 °F 76.4 °F 30.16 in SSW 4.0 mph 4.0 mph 82% 0.00 in
10:35 82.6 °F 75.4 °F 30.15 in SSW 2.0 mph 5.0 mph 79% 0.00 in
10:40 82.9 °F 75.7 °F 30.15 in SSW 3.0 mph 3.0 mph 79% 0.00 in
10:45 83.2 °F 75.2 °F 30.15 in West 5.0 mph 6.0 mph 77% 0.00 in
10:50 82.9 °F 74.9 °F 30.15 in SW 2.0 mph 5.0 mph 77% 0.00 in
10:55 83.2 °F 75.2 °F 30.15 in South 2.0 mph 7.0 mph 77% 0.00 in
11:00 83.4 °F 75.8 °F 30.15 in SSW 2.0 mph 4.0 mph 78% 0.00 in
11:05 84.0 °F 76.0 °F 30.15 in WSW 2.0 mph 6.0 mph 77% 0.00 in
11:10 84.2 °F 76.6 °F 30.15 in SSW 3.0 mph 7.0 mph 78% 0.00 in
11:16 84.3 °F 75.5 °F 30.15 in West 2.0 mph 7.0 mph 75% 0.00 in
11:21 84.1 °F 74.9 °F 30.15 in WSW 3.0 mph 7.0 mph 74% 0.00 in
11:26 84.2 °F 76.2 °F 30.15 in SW 3.0 mph 7.0 mph 77% 0.00 in
11:31 84.4 °F 76.4 °F 30.15 in SE 2.0 mph 7.0 mph 77% 0.00 in
11:36 84.8 °F 75.2 °F 30.15 in SSW 5.0 mph 8.0 mph 73% 0.00 in
11:41 84.7 °F 75.1 °F 30.15 in SW 6.0 mph 8.0 mph 73% 0.00 in
11:46 85.1 °F 75.1 °F 30.14 in SW 2.0 mph 5.0 mph 72% 0.00 in
11:51 85.3 °F 74.8 °F 30.14 in SW 4.0 mph 9.0 mph 71% 0.00 in
11:56 85.7 °F 74.8 °F 30.14 in West 7.0 mph 7.0 mph 70% 0.00 in
12:01 85.5 °F 75.4 °F 30.13 in West 6.0 mph 9.0 mph 72% 0.00 in
12:06 85.8 °F 74.0 °F 30.14 in SSE 5.0 mph 8.0 mph 68% 0.00 in
12:12 85.7 °F 75.2 °F 30.13 in WSW 7.0 mph 8.0 mph 71% 0.00 in
12:17 85.6 °F 75.5 °F 30.14 in SW 7.0 mph 7.0 mph 72% 0.00 in
12:22 86.0 °F 75.5 °F 30.14 in SW 7.0 mph 9.0 mph 71% 0.00 in
12:27 85.8 °F 74.5 °F 30.13 in West 6.0 mph 8.0 mph 69% 0.00 in
12:32 86.3 °F 75.4 °F 30.13 in SSE 4.0 mph 10.0 mph 70% 0.00 in
12:37 86.8 °F 76.7 °F 30.13 in SSE 5.0 mph 7.0 mph 72% 0.00 in
12:42 86.8 °F 75.0 °F 30.13 in SSW 5.0 mph 9.0 mph 68% 0.00 in
12:47 87.0 °F 74.7 °F 30.12 in SSW 2.0 mph 4.0 mph 67% 0.00 in
12:52 87.1 °F 74.8 °F 30.13 in SW 2.0 mph 8.0 mph 67% 0.00 in
12:57 87.2 °F 74.0 °F 30.12 in SW 6.0 mph 6.0 mph 65% 0.00 in
13:02 86.9 °F 74.6 °F 30.12 in WSW 5.0 mph 9.0 mph 67% 0.00 in
13:07 87.1 °F 74.8 °F 30.12 in WSW 8.0 mph 9.0 mph 67% 0.00 in
13:12 87.2 °F 75.8 °F 30.12 in South 4.0 mph 5.0 mph 69% 0.00 in
13:17 87.6 °F 75.7 °F 30.12 in West 3.0 mph 6.0 mph 68% 0.00 in
13:22 87.6 °F 75.3 °F 30.12 in SE 5.0 mph 6.0 mph 67% 0.00 in
13:27 87.7 °F 75.8 °F 30.12 in SE 2.0 mph 6.0 mph 68% 0.00 in
13:32 87.7 °F 75.4 °F 30.12 in SSW 1.0 mph 5.0 mph 67% 0.00 in
13:37 88.0 °F 74.3 °F 30.12 in SW 3.0 mph 5.0 mph 64% 0.00 in
13:42 87.3 °F 73.2 °F 30.12 in NW 2.0 mph 5.0 mph 63% 0.00 in
13:47 87.8 °F 74.6 °F 30.11 in WSW 4.0 mph 7.0 mph 65% 0.00 in
13:52 87.7 °F 75.4 °F 30.11 in WSW 3.0 mph 6.0 mph 67% 0.00 in
13:57 88.0 °F 75.7 °F 30.11 in SW 5.0 mph 6.0 mph 67% 0.00 in
14:02 88.1 °F 73.9 °F 30.11 in SW 2.0 mph 7.0 mph 63% 0.00 in
14:07 88.5 °F 73.3 °F 30.10 in SW 6.0 mph 6.0 mph 61% 0.00 in
14:12 88.7 °F 75.0 °F 30.10 in WSW 5.0 mph 8.0 mph 64% 0.00 in
14:17 88.6 °F 73.9 °F 30.10 in SE 8.0 mph 8.0 mph 62% 0.00 in
14:22 88.0 °F 74.3 °F 30.10 in West 2.0 mph 2.0 mph 64% 0.00 in
14:27 87.7 °F 75.4 °F 30.10 in WSW 4.0 mph 4.0 mph 67% 0.00 in
14:32 87.9 °F 74.7 °F 30.09 in WNW 2.0 mph 4.0 mph 65% 0.00 in
14:38 88.5 °F 75.2 °F 30.09 in SSW 5.0 mph 8.0 mph 65% 0.00 in
14:43 88.8 °F 73.6 °F 30.09 in SSW 5.0 mph 8.0 mph 61% 0.00 in
14:48 88.9 °F 74.7 °F 30.09 in SW 1.0 mph 7.0 mph 63% 0.00 in
14:53 89.4 °F 75.6 °F 30.09 in SSE 4.0 mph 10.0 mph 64% 0.00 in
14:58 89.3 °F 74.1 °F 30.09 in South 3.0 mph 12.0 mph 61% 0.00 in
15:03 88.9 °F 75.6 °F 30.09 in WSW 4.0 mph 7.0 mph 65% 0.00 in
15:08 88.4 °F 75.1 °F 30.08 in WSW 3.0 mph 5.0 mph 65% 0.00 in
15:13 89.1 °F 74.4 °F 30.08 in South 8.0 mph 9.0 mph 62% 0.00 in
15:18 89.1 °F 73.9 °F 30.08 in WSW 2.0 mph 6.0 mph 61% 0.00 in
15:23 89.8 °F 76.0 °F 30.08 in SSW 4.0 mph 5.0 mph 64% 0.00 in
15:28 90.1 °F 76.8 °F 30.08 in WSW 10.0 mph 10.0 mph 65% 0.00 in
15:33 89.5 °F 74.3 °F 30.08 in SW 7.0 mph 8.0 mph 61% 0.00 in
15:38 89.5 °F 73.3 °F 30.08 in South 3.0 mph 6.0 mph 59% 0.00 in
15:43 89.8 °F 74.1 °F 30.07 in SW 6.0 mph 7.0 mph 60% 0.00 in
15:48 89.5 °F 73.3 °F 30.08 in SSW 3.0 mph 9.0 mph 59% 0.00 in
15:53 89.7 °F 74.5 °F 30.07 in SW 4.0 mph 6.0 mph 61% 0.00 in
15:58 89.8 °F 73.1 °F 30.07 in SSW 4.0 mph 6.0 mph 58% 0.00 in
16:03 89.6 °F 74.4 °F 30.06 in SW 5.0 mph 6.0 mph 61% 0.00 in
16:08 89.5 °F 75.2 °F 30.06 in SW 3.0 mph 6.0 mph 63% 0.00 in
16:13 89.7 °F 72.4 °F 30.06 in SW 9.0 mph 9.0 mph 57% 0.00 in
16:18 89.6 °F 72.4 °F 30.06 in WSW 3.0 mph 6.0 mph 57% 0.00 in
16:23 89.7 °F 73.5 °F 30.06 in SW 5.0 mph 8.0 mph 59% 0.00 in
16:28 89.7 °F 75.0 °F 30.06 in SW 2.0 mph 6.0 mph 62% 0.00 in
16:33 89.9 °F 74.2 °F 30.05 in SSW 2.0 mph 8.0 mph 60% 0.00 in
16:38 90.0 °F 73.2 °F 30.05 in South 5.0 mph 8.0 mph 58% 0.00 in
16:43 90.0 °F 73.8 °F 30.05 in SSW 5.0 mph 8.0 mph 59% 0.00 in
16:48 90.1 °F 74.3 °F 30.05 in South 3.0 mph 8.0 mph 60% 0.00 in
16:53 90.3 °F 75.5 °F 30.05 in SW 7.0 mph 8.0 mph 62% 0.00 in
16:58 90.3 °F 75.5 °F 30.05 in WSW 6.0 mph 9.0 mph 62% 0.00 in
17:03 90.3 °F 74.5 °F 30.04 in SW 4.0 mph 8.0 mph 60% 0.00 in
17:08 90.6 °F 74.8 °F 30.05 in SSW 5.0 mph 9.0 mph 60% 0.00 in
17:14 90.5 °F 75.2 °F 30.05 in SSE 5.0 mph 9.0 mph 61% 0.00 in
17:19 90.5 °F 74.2 °F 30.05 in WSW 4.0 mph 7.0 mph 59% 0.00 in
17:24 89.9 °F 73.7 °F 30.04 in SSE 3.0 mph 7.0 mph 59% 0.00 in
17:29 90.0 °F 74.3 °F 30.04 in West 4.0 mph 5.0 mph 60% 0.00 in
17:34 90.0 °F 74.3 °F 30.04 in South 5.0 mph 9.0 mph 60% 0.00 in
17:39 89.4 °F 73.7 °F 30.04 in SW 5.0 mph 7.0 mph 60% 0.00 in
17:44 88.9 °F 74.2 °F 30.04 in SW 4.0 mph 4.0 mph 62% 0.00 in
17:49 89.7 °F 75.4 °F 30.04 in SW 3.0 mph 5.0 mph 63% 0.00 in
17:54 90.3 °F 75.0 °F 30.04 in SSW 3.0 mph 4.0 mph 61% 0.00 in
17:59 90.4 °F 74.6 °F 30.04 in South 7.0 mph 8.0 mph 60% 0.00 in
18:04 90.2 °F 73.4 °F 30.04 in SW 5.0 mph 10.0 mph 58% 0.00 in
18:09 90.2 °F 74.4 °F 30.04 in SW 4.0 mph 6.0 mph 60% 0.00 in
18:14 90.1 °F 74.8 °F 30.04 in SW 7.0 mph 7.0 mph 61% 0.00 in
18:19 89.9 °F 75.1 °F 30.04 in SSE 4.0 mph 6.0 mph 62% 0.00 in
18:24 89.4 °F 74.7 °F 30.03 in SSW 3.0 mph 6.0 mph 62% 0.00 in
18:29 88.9 °F 75.2 °F 30.03 in SSW 2.0 mph 6.0 mph 64% 0.00 in
18:34 89.1 °F 74.4 °F 30.03 in SW 3.0 mph 8.0 mph 62% 0.00 in
18:39 89.5 °F 74.8 °F 30.03 in WSW 6.0 mph 8.0 mph 62% 0.00 in
18:44 89.4 °F 73.7 °F 30.03 in SSW 4.0 mph 7.0 mph 60% 0.00 in
18:49 89.3 °F 74.6 °F 30.03 in SW 3.0 mph 7.0 mph 62% 0.00 in
18:54 89.6 °F 73.9 °F 30.03 in SW 6.0 mph 7.0 mph 60% 0.00 in
18:59 89.4 °F 74.2 °F 30.03 in SW 4.0 mph 8.0 mph 61% 0.00 in
19:04 89.6 °F 75.3 °F 30.03 in SSW 4.0 mph 4.0 mph 63% 0.00 in
19:09 89.5 °F 74.3 °F 30.02 in SSW 3.0 mph 5.0 mph 61% 0.00 in
19:14 89.5 °F 74.8 °F 30.02 in SW 3.0 mph 6.0 mph 62% 0.00 in
19:19 89.4 °F 73.7 °F 30.02 in SW 4.0 mph 6.0 mph 60% 0.00 in
19:24 89.5 °F 74.3 °F 30.02 in SSW 4.0 mph 4.0 mph 61% 0.00 in
19:29 89.2 °F 74.0 °F 30.03 in SSW 3.0 mph 5.0 mph 61% 0.00 in
19:34 89.2 °F 74.5 °F 30.03 in SSW 3.0 mph 4.0 mph 62% 0.00 in
19:39 89.0 °F 74.8 °F 30.03 in SW 2.0 mph 4.0 mph 63% 0.00 in
19:44 88.9 °F 75.2 °F 30.03 in SW 3.0 mph 4.0 mph 64% 0.00 in
19:49 88.7 °F 75.0 °F 30.03 in WSW 3.0 mph 5.0 mph 64% 0.00 in
19:54 88.5 °F 74.8 °F 30.03 in SW 2.0 mph 3.0 mph 64% 0.00 in
19:59 88.4 °F 75.1 °F 30.03 in WSW 3.0 mph 4.0 mph 65% 0.00 in
20:04 88.3 °F 75.5 °F 30.03 in WSW 2.0 mph 2.0 mph 66% 0.00 in
20:09 88.2 °F 75.4 °F 30.03 in WSW 2.0 mph 3.0 mph 66% 0.00 in
20:14 87.9 °F 76.0 °F 30.03 in SW 1.0 mph 2.0 mph 68% 0.00 in
20:19 87.7 °F 76.3 °F 30.04 in SW 1.0 mph 2.0 mph 69% 0.00 in
20:24 87.4 °F 76.0 °F 30.03 in SW 1.0 mph 2.0 mph 69% 0.00 in
20:29 87.0 °F 76.0 °F 30.03 in SW 1.0 mph 1.0 mph 70% 0.00 in
20:34 86.5 °F 76.0 °F 30.03 in SW 1.0 mph 2.0 mph 71% 0.00 in
20:39 86.0 °F 75.9 °F 30.03 in SW 1.0 mph 2.0 mph 72% 0.00 in
20:44 85.3 °F 75.7 °F 30.03 in SSW 1.0 mph 2.0 mph 73% 0.00 in
20:49 84.7 °F 75.5 °F 30.03 in Calm   1.0 mph 74% 0.00 in
20:54 84.1 °F 75.3 °F 30.03 in SSW 1.0 mph 2.0 mph 75% 0.00 in
20:59 83.5 °F 75.1 °F 30.03 in Calm   1.0 mph 76% 0.00 in
21:04 83.0 °F 75.1 °F 30.04 in Calm   1.0 mph 77% 0.00 in
21:09 82.5 °F 74.6 °F 30.04 in SW 1.0 mph 2.0 mph 77% 0.00 in
21:14 82.0 °F 74.5 °F 30.03 in Calm   2.0 mph 78% 0.00 in
21:20 81.8 °F 74.3 °F 30.04 in SW 1.0 mph 2.0 mph 78% 0.00 in
21:25 81.6 °F 74.1 °F 30.04 in SSW 1.0 mph 2.0 mph 78% 0.00 in
21:30 81.4 °F 73.9 °F 30.04 in Calm   2.0 mph 78% 0.00 in
21:35 81.1 °F 74.0 °F 30.04 in SW 1.0 mph 1.0 mph 79% 0.00 in
21:40 80.9 °F 73.8 °F 30.04 in SW 1.0 mph 2.0 mph 79% 0.00 in
21:45 80.7 °F 73.6 °F 30.04 in SW 2.0 mph 3.0 mph 79% 0.00 in
21:50 80.6 °F 73.5 °F 30.04 in WSW 2.0 mph 3.0 mph 79% 0.00 in
21:55 80.6 °F 73.5 °F 30.04 in SW 1.0 mph 3.0 mph 79% 0.00 in
22:00 80.4 °F 73.3 °F 30.04 in Calm   1.0 mph 79% 0.00 in
22:05 80.2 °F 73.5 °F 30.04 in SW 1.0 mph 1.0 mph 80% 0.00 in
22:10 80.0 °F 73.3 °F 30.04 in SW 2.0 mph 2.0 mph 80% 0.00 in
22:15 79.8 °F 73.1 °F 30.05 in WSW 1.0 mph 2.0 mph 80% 0.00 in
22:20 79.7 °F 73.4 °F 30.05 in SW 2.0 mph 3.0 mph 81% 0.00 in
22:25 79.5 °F 73.2 °F 30.05 in SW 1.0 mph 3.0 mph 81% 0.00 in
22:30 79.3 °F 73.0 °F 30.05 in SW 1.0 mph 1.0 mph 81% 0.00 in
22:35 79.3 °F 73.0 °F 30.05 in West 1.0 mph 2.0 mph 81% 0.00 in
22:40 79.4 °F 73.1 °F 30.05 in Calm   1.0 mph 81% 0.00 in
22:45 79.3 °F 73.0 °F 30.05 in SW 1.0 mph 2.0 mph 81% 0.00 in
22:50 79.4 °F 73.4 °F 30.05 in Calm   1.0 mph 82% 0.00 in
22:55 79.2 °F 73.2 °F 30.05 in Calm   1.0 mph 82% 0.00 in
23:00 79.0 °F 73.0 °F 30.05 in Calm   1.0 mph 82% 0.00 in
23:05 78.8 °F 72.8 °F 30.05 in Calm     82% 0.00 in
23:10 78.5 °F 72.6 °F 30.05 in Calm     82% 0.00 in
23:15 78.2 °F 72.6 °F 30.05 in Calm     83% 0.00 in
23:20 78.2 °F 72.6 °F 30.06 in Calm     83% 0.00 in
23:25 78.1 °F 72.9 °F 30.05 in Calm     84% 0.00 in
23:30 77.9 °F 72.7 °F 30.05 in Calm     84% 0.00 in
23:35 77.8 °F 72.9 °F 30.05 in Calm     85% 0.00 in
23:40 77.7 °F 72.8 °F 30.05 in Calm     85% 0.00 in
23:45 77.5 °F 72.6 °F 30.05 in Calm     85% 0.00 in
23:50 77.4 °F 72.5 °F 30.05 in Calm     85% 0.00 in
23:55 77.1 °F 72.6 °F 30.05 in Calm     86% 0.00 in
Compliments of Weather Underground